KDUC/DUC METAR and TAF weather

Enter ICAO airport designator
Station Type Date Time Source
KDUC METAR 2019/10/20 18:55 UTC NOAA

KDUC 201855Z AUTO 19015G23KT 10SM CLR 28/11 A2969 RMK AO2 T02810106


Station Type Date Time Source
KDUC Decoded METAR 2019/10/20 18:55 UTC NOAA

Duncan, Halliburton Field Airport, OK, United States (KDUC) 34-28-15N 097-57-36W
Oct 20, 2019 - 02:55 PM EDT / 2019.10.20 1855 UTC
Wind: from the S (190 degrees) at 17 MPH (15 KT) gusting to 26 MPH (23 KT):0
Visibility: 10 mile(s):0
Sky conditions: clear
Temperature: 82.6 F (28.1 C)
Dew Point: 51.1 F (10.6 C)
Relative Humidity: 33%
Pressure (altimeter): 29.69 in. Hg (1005 hPa)
ob: KDUC 201855Z AUTO 19015G23KT 10SM CLR 28/11 A2969 RMK AO2 T02810106
cycle: 19

Station Type Date Time Source
KDUC TAF UTC NOAA

Error!

Example: see airport list